createdAt,value
2023-02-18T00:01:01.566Z,21.3
2023-02-18T00:06:39.935Z,21.3
2023-02-18T00:12:01.855Z,22.1
2023-02-18T00:17:38.709Z,22.1
2023-02-18T00:22:45.082Z,21.4
2023-02-18T00:28:22.347Z,20.9
2023-02-18T00:33:44.001Z,20.5
2023-02-18T00:39:20.567Z,20.8
2023-02-18T00:44:58.131Z,21.8
2023-02-18T00:50:35.366Z,22.3
2023-02-18T00:56:12.406Z,21.8
2023-02-18T01:01:49.346Z,21.2
2023-02-18T01:07:26.567Z,20.8
2023-02-18T01:13:04.727Z,20.5
2023-02-18T01:18:42.009Z,21.4
2023-02-18T01:24:19.136Z,22
2023-02-18T01:29:55.734Z,22.3
2023-02-18T01:35:33.578Z,21.4
2023-02-18T01:41:11.409Z,20.9
2023-02-18T01:46:48.867Z,20.6
2023-02-18T01:52:10.392Z,20.5
2023-02-18T01:57:48.783Z,20.4
2023-02-18T02:03:26.542Z,21.3
2023-02-18T02:09:03.363Z,22.1
2023-02-18T02:14:39.919Z,22.4
2023-02-18T02:20:16.832Z,21.5
2023-02-18T02:25:53.240Z,22.1
2023-02-18T02:31:31.427Z,21.9
2023-02-18T02:37:08.356Z,21.3
2023-02-18T02:42:46.311Z,20.7
2023-02-18T02:48:24.453Z,20.6
2023-02-18T02:54:01.546Z,20.4
2023-02-18T02:59:39.425Z,20.9
2023-02-18T03:05:16.894Z,21.6
2023-02-18T03:10:54.285Z,22.3
2023-02-18T03:16:32.294Z,21.9
2023-02-18T03:22:09.537Z,21.4
2023-02-18T03:27:47.876Z,20.8
2023-02-18T03:33:25.678Z,20.6
2023-02-18T03:39:02.862Z,21.4
2023-02-18T03:44:24.185Z,22
2023-02-18T03:49:45.437Z,22.3
2023-02-18T03:55:22.731Z,21.5
2023-02-18T04:00:59.627Z,21
2023-02-18T04:06:37.581Z,20.6
2023-02-18T04:12:14.325Z,20.9
2023-02-18T04:17:51.678Z,21.8
2023-02-18T04:23:28.889Z,22.4
2023-02-18T04:28:51.533Z,21.9
2023-02-18T04:34:31.953Z,21.3
2023-02-18T04:40:10.597Z,20.8
2023-02-18T04:45:47.768Z,20.6
2023-02-18T04:51:25.250Z,21.4
2023-02-18T04:57:01.624Z,21.1
2023-02-18T05:02:38.572Z,21.6
2023-02-18T05:07:44.918Z,22.4
2023-02-18T05:13:06.460Z,22.6
2023-02-18T05:18:44.347Z,21.6
2023-02-18T05:24:07.944Z,20.8
2023-02-18T05:29:44.752Z,20.5
2023-02-18T05:35:22.984Z,20.4
2023-02-18T05:41:00.821Z,20.4
2023-02-18T05:46:07.852Z,21.3
2023-02-18T05:51:46.356Z,21.8
2023-02-18T05:57:22.415Z,21.9
2023-02-18T06:08:22.718Z,20.6
2023-02-18T06:13:44.568Z,20.6
2023-02-18T06:19:22.621Z,20.6
2023-02-18T06:24:59.453Z,20.4
2023-02-18T06:30:37.766Z,21.4
2023-02-18T06:36:15.909Z,21.9
2023-02-18T06:41:54.379Z,22.2
2023-02-18T06:47:31.858Z,21.3
2023-02-18T06:53:11.211Z,20.8
2023-02-18T06:58:17.644Z,20.6
2023-02-18T07:03:55.505Z,20.9
2023-02-18T07:09:33.259Z,22.2
2023-02-18T07:15:10.641Z,22.7
2023-02-18T07:20:47.955Z,21.9
2023-02-18T07:26:25.801Z,21.3
2023-02-18T07:31:46.951Z,20.7
2023-02-18T07:37:24.125Z,20.5
2023-02-18T07:43:01.503Z,20.3
2023-02-18T07:48:38.950Z,20.9
2023-02-18T07:54:17.158Z,21.8
2023-02-18T07:59:55.073Z,21.3
2023-02-18T08:05:32.226Z,20.9
2023-02-18T08:11:18.771Z,20.6
2023-02-18T08:16:56.720Z,20.3
2023-02-18T08:22:34.072Z,20.5
2023-02-18T08:28:23.514Z,21.7
2023-02-18T08:34:01.812Z,21.1
2023-02-18T08:39:32.944Z,20.8
2023-02-18T08:45:09.164Z,20.6
2023-02-18T08:52:16.861Z,20.3
2023-02-18T08:57:54.681Z,20.8
2023-02-18T09:03:19.075Z,21.9
2023-02-18T09:08:40.831Z,21.3
2023-02-18T09:14:17.083Z,20.8
2023-02-18T09:19:54.366Z,20.6
2023-02-18T09:25:31.704Z,20.4
2023-02-18T09:31:10.078Z,20.8
2023-02-18T09:37:05.740Z,21.9
2023-02-18T09:48:06.999Z,20.8
2023-02-18T09:53:46.999Z,20.6
2023-02-18T09:59:26.518Z,20.5
2023-02-18T10:05:05.880Z,20.9
2023-02-18T10:10:44.001Z,22.1
2023-02-18T10:16:05.685Z,21.2
2023-02-18T10:21:48.039Z,20.9
2023-02-18T10:27:25.115Z,20.6
2023-02-18T10:32:47.978Z,20.4
2023-02-18T10:38:24.654Z,21.3
2023-02-18T10:43:45.474Z,22.3
2023-02-18T10:49:21.736Z,21.3
2023-02-18T10:54:59.443Z,20.9
2023-02-18T11:00:36.552Z,20.6
2023-02-18T11:06:14.607Z,20.5
2023-02-18T11:11:36.544Z,21.4
2023-02-18T11:17:11.123Z,22
2023-02-18T11:27:39.523Z,20.9
2023-02-18T11:33:02.072Z,20.8
2023-02-18T11:38:39.702Z,20.5
2023-02-18T11:44:01.693Z,21.3
2023-02-18T11:49:37.574Z,21.9
2023-02-18T12:00:37.175Z,20.8
2023-02-18T12:05:44.330Z,20.6
2023-02-18T12:11:21.272Z,20.3
2023-02-18T12:17:00.700Z,20.8
2023-02-18T12:22:39.526Z,21.8
2023-02-18T12:28:17.102Z,21.2
2023-02-18T12:33:40.033Z,20.8
2023-02-18T12:39:17.521Z,20.6
2023-02-18T12:44:56.383Z,20.4
2023-02-18T12:50:33.644Z,20.4
2023-02-18T12:56:10.607Z,21.5
2023-02-18T13:01:16.777Z,21.2
2023-02-18T13:06:39.550Z,20.8
2023-02-18T13:12:01.045Z,20.4
2023-02-18T13:17:22.466Z,20.4
2023-02-18T13:23:01.810Z,20.3
2023-02-18T13:28:26.132Z,21.1
2023-02-18T13:34:04.405Z,21.4
2023-02-18T13:39:41.875Z,20.8
2023-02-18T13:45:18.748Z,21.4
2023-02-18T13:50:55.944Z,21
2023-02-18T13:56:33.177Z,20.8
2023-02-18T14:02:11.042Z,20.2
2023-02-18T14:07:48.669Z,21.2
2023-02-18T14:13:26.162Z,21.7
2023-02-18T14:19:03.175Z,20.8
2023-02-18T14:24:40.567Z,20.4
2023-02-18T14:30:18.622Z,20.3
2023-02-18T14:35:45.987Z,20.1
2023-02-18T14:41:24.888Z,19.9
2023-02-18T14:46:46.806Z,19.8
2023-02-18T14:52:23.081Z,19.5
2023-02-18T14:58:00.366Z,19.3
2023-02-18T15:03:38.617Z,19.1
2023-02-18T15:09:16.172Z,19.7
2023-02-18T15:14:39.401Z,19.4
2023-02-18T15:20:20.471Z,19.3
2023-02-18T15:25:59.131Z,19.2
2023-02-18T15:31:36.964Z,19.1
2023-02-18T15:37:00.002Z,19.1
2023-02-18T15:42:37.005Z,19
2023-02-18T15:48:15.539Z,18.9
2023-02-18T15:53:47.334Z,18.9
2023-02-18T15:59:25.612Z,18.8
2023-02-18T16:05:05.212Z,18.8
2023-02-18T16:20:54.968Z,18.6
2023-02-18T16:26:17.291Z,18.6
2023-02-18T16:31:55.839Z,18.5
2023-02-18T16:37:30.364Z,18.5
2023-02-18T16:43:09.084Z,18.4
2023-02-18T16:48:31.660Z,18.4
2023-02-18T16:54:10.755Z,18.4
2023-02-18T16:59:48.320Z,18.3
2023-02-18T17:05:43.024Z,18.3
2023-02-18T17:11:04.723Z,18.1
2023-02-18T17:16:43.391Z,18.3
2023-02-18T17:22:22.885Z,21.3
2023-02-18T17:28:00.649Z,22.6
2023-02-18T17:33:39.694Z,22.8
2023-02-18T17:39:20.149Z,21.6
2023-02-18T17:44:41.466Z,21.9
2023-02-18T17:50:23.206Z,21.6
2023-02-18T17:55:45.340Z,20.9
2023-02-18T18:01:07.289Z,21.6
2023-02-18T18:06:29.529Z,21.8
2023-02-18T18:12:06.281Z,21.1
2023-02-18T18:17:44.134Z,20.6
2023-02-18T18:23:21.932Z,20.4
2023-02-18T18:28:59.628Z,20.3
2023-02-18T18:34:35.702Z,20.8
2023-02-18T18:39:57.752Z,21.6
2023-02-18T18:45:20.080Z,21.4
2023-02-18T18:50:58.491Z,20.8
2023-02-18T18:56:37.362Z,20.6
2023-02-18T19:02:17.635Z,20.4
2023-02-18T19:07:55.258Z,20.3
2023-02-18T19:13:33.175Z,20.9
2023-02-18T19:19:10.303Z,21.7
2023-02-18T19:24:47.758Z,21.3
2023-02-18T19:30:25.922Z,20.6
2023-02-18T19:36:03.382Z,21.2
2023-02-18T19:41:39.989Z,21.4
2023-02-18T19:47:18.022Z,20.8
2023-02-18T19:52:55.180Z,20.7
2023-02-18T19:58:32.667Z,21.4
2023-02-18T20:09:32.175Z,20.7
2023-02-18T20:15:10.003Z,20.4
2023-02-18T20:20:48.110Z,21
2023-02-18T20:26:58.075Z,21.4
2023-02-18T20:32:31.180Z,20.8
2023-02-18T20:38:09.489Z,20.5
2023-02-18T20:44:11.844Z,20.3
2023-02-18T20:49:34.143Z,20.4
2023-02-18T20:55:11.952Z,21.2
2023-02-18T21:00:49.344Z,21.3
2023-02-18T21:06:28.631Z,20.6
2023-02-18T21:12:06.045Z,20.3
2023-02-18T21:17:43.855Z,20.8
2023-02-18T21:23:22.205Z,21.3
2023-02-18T21:28:44.897Z,20.6
2023-02-18T21:34:23.227Z,20.4
2023-02-18T21:39:59.696Z,20.2
2023-02-18T21:45:32.504Z,20.4
2023-02-18T21:51:11.136Z,21.3
2023-02-18T21:56:54.814Z,21.1
2023-02-18T22:02:51.032Z,20.6
2023-02-18T22:08:28.655Z,20.4
2023-02-18T22:13:49.734Z,20.8
2023-02-18T22:19:28.236Z,21.4
2023-02-18T22:25:06.171Z,22
2023-02-18T22:30:43.317Z,22.4
2023-02-18T22:36:23.782Z,21.8
2023-02-18T22:42:02.311Z,22.3
2023-02-18T22:47:39.281Z,22.9
2023-02-18T22:53:16.602Z,22.5
2023-02-18T22:58:53.490Z,21.8
2023-02-18T23:04:30.197Z,22.5
2023-02-18T23:09:52.157Z,23.1
2023-02-18T23:15:31.699Z,22.4
2023-02-18T23:20:52.342Z,21.7
2023-02-18T23:26:29.439Z,22
2023-02-18T23:32:07.947Z,22.9
2023-02-18T23:37:30.032Z,22.5
2023-02-18T23:43:07.499Z,21.8
2023-02-18T23:48:44.931Z,22.1
2023-02-18T23:54:21.728Z,23.1
2023-02-18T23:59:59.018Z,22.4
